sensor_id;sensor_type;location;lat;lon;timestamp;P1;durP1;ratioP1;P2;durP2;ratioP2
34146;SDS011;20423;49.448;9.056;2023-08-06T00:00:23;24.7;;;21.9;;
34146;SDS011;20423;49.448;9.056;2023-08-06T00:05:29;25.3;;;23.6;;
34146;SDS011;20423;49.448;9.056;2023-08-06T00:10:33;26.9;;;23.5;;
34146;SDS011;20423;49.448;9.056;2023-08-06T00:15:49;26;;;23.4;;
34146;SDS011;20423;49.448;9.056;2023-08-06T00:20:53;25.7;;;23.3;;
34146;SDS011;20423;49.448;9.056;2023-08-06T00:25:39;25.8;;;23.2;;
34146;SDS011;20423;49.448;9.056;2023-08-06T00:31:03;23.8;;;22.1;;
34146;SDS011;20423;49.448;9.056;2023-08-06T00:35:49;27.4;;;24;;
34146;SDS011;20423;49.448;9.056;2023-08-06T00:41:03;25.8;;;23.1;;
34146;SDS011;20423;49.448;9.056;2023-08-06T00:45:35;23.8;;;22.2;;
34146;SDS011;20423;49.448;9.056;2023-08-06T00:51:03;25.7;;;23.5;;
34146;SDS011;20423;49.448;9.056;2023-08-06T00:55:53;25.4;;;23.2;;
34146;SDS011;20423;49.448;9.056;2023-08-06T01:00:45;25.8;;;23.4;;
34146;SDS011;20423;49.448;9.056;2023-08-06T01:05:23;26.3;;;24.2;;
34146;SDS011;20423;49.448;9.056;2023-08-06T01:10:20;27.1;;;24.4;;
34146;SDS011;20423;49.448;9.056;2023-08-06T01:16:03;27.5;;;23.5;;
34146;SDS011;20423;49.448;9.056;2023-08-06T01:20:27;25.4;;;22.8;;
34146;SDS011;20423;49.448;9.056;2023-08-06T01:25:17;26.2;;;23.5;;
34146;SDS011;20423;49.448;9.056;2023-08-06T01:31:03;24.5;;;22.8;;
34146;SDS011;20423;49.448;9.056;2023-08-06T01:35:45;24.3;;;21.9;;
34146;SDS011;20423;49.448;9.056;2023-08-06T01:40:23;25.7;;;23.5;;
34146;SDS011;20423;49.448;9.056;2023-08-06T01:45:17;24.3;;;22.1;;
34146;SDS011;20423;49.448;9.056;2023-08-06T01:51:03;24.9;;;23.2;;
34146;SDS011;20423;49.448;9.056;2023-08-06T01:55:53;24.9;;;22.7;;
34146;SDS011;20423;49.448;9.056;2023-08-06T02:00:39;22.3;;;20.6;;
34146;SDS011;20423;49.448;9.056;2023-08-06T02:05:23;25.8;;;22.9;;
34146;SDS011;20423;49.448;9.056;2023-08-06T02:11:01;29.3;;;25.9;;
34146;SDS011;20423;49.448;9.056;2023-08-06T02:15:17;33.9;;;29.6;;
34146;SDS011;20423;49.448;9.056;2023-08-06T02:20:17;30.1;;;26.9;;
34146;SDS011;20423;49.448;9.056;2023-08-06T02:26:01;27.8;;;23.9;;
34146;SDS011;20423;49.448;9.056;2023-08-06T02:30:53;24.5;;;21.9;;
34146;SDS011;20423;49.448;9.056;2023-08-06T02:35:58;24.5;;;22.6;;
34146;SDS011;20423;49.448;9.056;2023-08-06T02:40:17;24.4;;;22.4;;
34146;SDS011;20423;49.448;9.056;2023-08-06T02:45:17;25.4;;;23;;
34146;SDS011;20423;49.448;9.056;2023-08-06T02:50:29;25.3;;;23.2;;
34146;SDS011;20423;49.448;9.056;2023-08-06T02:55:29;25.2;;;22.4;;
34146;SDS011;20423;49.448;9.056;2023-08-06T03:01:03;23.5;;;21.5;;
34146;SDS011;20423;49.448;9.056;2023-08-06T03:05:19;25.7;;;23.5;;
34146;SDS011;20423;49.448;9.056;2023-08-06T03:11:03;25.4;;;22.7;;
34146;SDS011;20423;49.448;9.056;2023-08-06T03:15:31;24;;;22.4;;
34146;SDS011;20423;49.448;9.056;2023-08-06T03:20:17;23.4;;;21.5;;
34146;SDS011;20423;49.448;9.056;2023-08-06T03:25:23;23.9;;;21.9;;
34146;SDS011;20423;49.448;9.056;2023-08-06T03:30:35;24.3;;;22.2;;
34146;SDS011;20423;49.448;9.056;2023-08-06T03:35:39;23.6;;;21.9;;
34146;SDS011;20423;49.448;9.056;2023-08-06T03:40:49;24.3;;;21.9;;
34146;SDS011;20423;49.448;9.056;2023-08-06T03:45:27;26.1;;;23;;
34146;SDS011;20423;49.448;9.056;2023-08-06T03:50:17;27.4;;;24;;
34146;SDS011;20423;49.448;9.056;2023-08-06T03:55:31;25;;;22.7;;
34146;SDS011;20423;49.448;9.056;2023-08-06T04:01:03;26.6;;;22.4;;
34146;SDS011;20423;49.448;9.056;2023-08-06T04:06:03;25;;;22.9;;
34146;SDS011;20423;49.448;9.056;2023-08-06T04:10:23;24.4;;;21.4;;
34146;SDS011;20423;49.448;9.056;2023-08-06T04:15:47;24.7;;;21.9;;
34146;SDS011;20423;49.448;9.056;2023-08-06T04:21:01;23;;;21.6;;
34146;SDS011;20423;49.448;9.056;2023-08-06T04:25:33;23.4;;;21.4;;
34146;SDS011;20423;49.448;9.056;2023-08-06T04:30:25;23.7;;;21.7;;
34146;SDS011;20423;49.448;9.056;2023-08-06T04:35:45;23.8;;;21.2;;
34146;SDS011;20423;49.448;9.056;2023-08-06T04:41:03;23.3;;;21.2;;
34146;SDS011;20423;49.448;9.056;2023-08-06T04:45:53;24.3;;;21.5;;
34146;SDS011;20423;49.448;9.056;2023-08-06T04:50:25;25.1;;;22.9;;
34146;SDS011;20423;49.448;9.056;2023-08-06T04:56:03;24.5;;;22.5;;
34146;SDS011;20423;49.448;9.056;2023-08-06T05:00:23;23.8;;;20.7;;
34146;SDS011;20423;49.448;9.056;2023-08-06T05:05:17;24;;;21.5;;
34146;SDS011;20423;49.448;9.056;2023-08-06T05:10:37;25.3;;;21.9;;
34146;SDS011;20423;49.448;9.056;2023-08-06T05:15:19;23.3;;;21.7;;
34146;SDS011;20423;49.448;9.056;2023-08-06T05:20:51;25.3;;;22.7;;
34146;SDS011;20423;49.448;9.056;2023-08-06T05:25:37;24.8;;;21.9;;
34146;SDS011;20423;49.448;9.056;2023-08-06T05:31:02;25.7;;;22.8;;
34146;SDS011;20423;49.448;9.056;2023-08-06T05:35:43;23.7;;;21.4;;
34146;SDS011;20423;49.448;9.056;2023-08-06T05:41:01;23.7;;;21.2;;
34146;SDS011;20423;49.448;9.056;2023-08-06T05:45:29;25.9;;;22.2;;
34146;SDS011;20423;49.448;9.056;2023-08-06T05:51:03;23.3;;;21.8;;
34146;SDS011;20423;49.448;9.056;2023-08-06T05:56:03;25.8;;;22.7;;
34146;SDS011;20423;49.448;9.056;2023-08-06T06:01:03;24.5;;;21.8;;
34146;SDS011;20423;49.448;9.056;2023-08-06T06:05:29;23.4;;;21.5;;
34146;SDS011;20423;49.448;9.056;2023-08-06T06:10:25;23.7;;;21.5;;
34146;SDS011;20423;49.448;9.056;2023-08-06T06:15:53;24.3;;;21.6;;
34146;SDS011;20423;49.448;9.056;2023-08-06T06:20:53;23.4;;;21.3;;
34146;SDS011;20423;49.448;9.056;2023-08-06T06:25:49;25.3;;;22.6;;
34146;SDS011;20423;49.448;9.056;2023-08-06T06:30:17;24;;;21.1;;
34146;SDS011;20423;49.448;9.056;2023-08-06T06:36:03;25.3;;;22.6;;
34146;SDS011;20423;49.448;9.056;2023-08-06T06:40:23;24.3;;;22.4;;
34146;SDS011;20423;49.448;9.056;2023-08-06T06:45:29;24.1;;;22.5;;
34146;SDS011;20423;49.448;9.056;2023-08-06T06:50:37;24.3;;;21.9;;
34146;SDS011;20423;49.448;9.056;2023-08-06T06:55:53;23.8;;;21.5;;
34146;SDS011;20423;49.448;9.056;2023-08-06T07:00:39;26.2;;;23.1;;
34146;SDS011;20423;49.448;9.056;2023-08-06T07:05:31;26.1;;;23.7;;
34146;SDS011;20423;49.448;9.056;2023-08-06T07:10:23;26;;;22.6;;
34146;SDS011;20423;49.448;9.056;2023-08-06T07:15:23;26.9;;;22.8;;
34146;SDS011;20423;49.448;9.056;2023-08-06T07:20:29;24.2;;;21.8;;
34146;SDS011;20423;49.448;9.056;2023-08-06T07:26:03;26;;;23.4;;
34146;SDS011;20423;49.448;9.056;2023-08-06T07:30:25;24.5;;;22.8;;
34146;SDS011;20423;49.448;9.056;2023-08-06T07:36:11;25;;;22.9;;
34146;SDS011;20423;49.448;9.056;2023-08-06T07:40:17;24.7;;;22.7;;
34146;SDS011;20423;49.448;9.056;2023-08-06T07:45:23;22.8;;;21.3;;
34146;SDS011;20423;49.448;9.056;2023-08-06T07:50:51;27.3;;;23.8;;
34146;SDS011;20423;49.448;9.056;2023-08-06T07:55:35;24.4;;;22;;
34146;SDS011;20423;49.448;9.056;2023-08-06T08:00:37;24.3;;;21.7;;
34146;SDS011;20423;49.448;9.056;2023-08-06T08:05:33;26.3;;;23.8;;
34146;SDS011;20423;49.448;9.056;2023-08-06T08:10:49;24;;;21.9;;
34146;SDS011;20423;49.448;9.056;2023-08-06T08:15:17;23.4;;;21.2;;
34146;SDS011;20423;49.448;9.056;2023-08-06T08:20:23;24.6;;;21.9;;
34146;SDS011;20423;49.448;9.056;2023-08-06T08:26:03;20.9;;;19;;
34146;SDS011;20423;49.448;9.056;2023-08-06T08:31:03;20.6;;;19.2;;
34146;SDS011;20423;49.448;9.056;2023-08-06T08:35:31;21.4;;;18.9;;
34146;SDS011;20423;49.448;9.056;2023-08-06T08:40:19;20.1;;;17.9;;
34146;SDS011;20423;49.448;9.056;2023-08-06T08:46:01;21.1;;;19;;
34146;SDS011;20423;49.448;9.056;2023-08-06T08:50:17;20.9;;;18.9;;
34146;SDS011;20423;49.448;9.056;2023-08-06T08:55:23;21.2;;;19.6;;
34146;SDS011;20423;49.448;9.056;2023-08-06T09:00:45;20.4;;;19;;
34146;SDS011;20423;49.448;9.056;2023-08-06T09:06:03;22.1;;;19.4;;
34146;SDS011;20423;49.448;9.056;2023-08-06T09:11:03;22.1;;;19.3;;
34146;SDS011;20423;49.448;9.056;2023-08-06T09:15:31;20.8;;;19.2;;
34146;SDS011;20423;49.448;9.056;2023-08-06T09:21:03;21.5;;;19.5;;
34146;SDS011;20423;49.448;9.056;2023-08-06T09:25:33;20.9;;;19.5;;
34146;SDS011;20423;49.448;9.056;2023-08-06T09:30:28;20.4;;;18.9;;
34146;SDS011;20423;49.448;9.056;2023-08-06T09:35:33;20.7;;;19.2;;
34146;SDS011;20423;49.448;9.056;2023-08-06T09:41:03;23;;;20.4;;
34146;SDS011;20423;49.448;9.056;2023-08-06T09:45:53;22.3;;;20.4;;
34146;SDS011;20423;49.448;9.056;2023-08-06T09:50:45;21.3;;;19.8;;
34146;SDS011;20423;49.448;9.056;2023-08-06T09:55:35;38.8;;;32.6;;
34146;SDS011;20423;49.448;9.056;2023-08-06T10:00:23;22.8;;;20.6;;
34146;SDS011;20423;49.448;9.056;2023-08-06T10:06:01;23.8;;;21.2;;
34146;SDS011;20423;49.448;9.056;2023-08-06T10:10:33;21.6;;;20.4;;
34146;SDS011;20423;49.448;9.056;2023-08-06T10:15:37;21.5;;;19.6;;
34146;SDS011;20423;49.448;9.056;2023-08-06T10:21:04;19.8;;;18.4;;
34146;SDS011;20423;49.448;9.056;2023-08-06T10:26:03;21.9;;;19.2;;
34146;SDS011;20423;49.448;9.056;2023-08-06T10:30:40;22.7;;;19;;
34146;SDS011;20423;49.448;9.056;2023-08-06T10:35:48;19.6;;;18;;
34146;SDS011;20423;49.448;9.056;2023-08-06T10:41:00;20;;;18.4;;
34146;SDS011;20423;49.448;9.056;2023-08-06T10:45:39;20.3;;;18.3;;
34146;SDS011;20423;49.448;9.056;2023-08-06T10:50:39;20.2;;;17.7;;
34146;SDS011;20423;49.448;9.056;2023-08-06T10:55:26;21.3;;;19.2;;
34146;SDS011;20423;49.448;9.056;2023-08-06T11:01:03;20.2;;;18.4;;
34146;SDS011;20423;49.448;9.056;2023-08-06T11:05:35;21.4;;;19;;
34146;SDS011;20423;49.448;9.056;2023-08-06T11:10:29;19.9;;;17.7;;
34146;SDS011;20423;49.448;9.056;2023-08-06T11:16:01;20.5;;;18.4;;
34146;SDS011;20423;49.448;9.056;2023-08-06T11:20:51;21.3;;;18.6;;
34146;SDS011;20423;49.448;9.056;2023-08-06T11:25:25;18.9;;;17.2;;
34146;SDS011;20423;49.448;9.056;2023-08-06T11:30:31;17.3;;;16.6;;
34146;SDS011;20423;49.448;9.056;2023-08-06T11:35:17;19.3;;;17.2;;
34146;SDS011;20423;49.448;9.056;2023-08-06T11:40:35;21.7;;;19.6;;
34146;SDS011;20423;49.448;9.056;2023-08-06T11:45:21;20.6;;;18.7;;
34146;SDS011;20423;49.448;9.056;2023-08-06T11:51:01;21.1;;;18.2;;
34146;SDS011;20423;49.448;9.056;2023-08-06T11:55:19;17.6;;;15.7;;
34146;SDS011;20423;49.448;9.056;2023-08-06T12:01:01;20.2;;;18.3;;
34146;SDS011;20423;49.448;9.056;2023-08-06T12:05:17;22.4;;;19.8;;
34146;SDS011;20423;49.448;9.056;2023-08-06T12:10:18;20.9;;;19.3;;
34146;SDS011;20423;49.448;9.056;2023-08-06T12:15:17;20.6;;;17.7;;
34146;SDS011;20423;49.448;9.056;2023-08-06T12:20:37;21.3;;;19.8;;
34146;SDS011;20423;49.448;9.056;2023-08-06T12:25:29;18.3;;;16.4;;
34146;SDS011;20423;49.448;9.056;2023-08-06T12:30:47;18.7;;;16;;
34146;SDS011;20423;49.448;9.056;2023-08-06T12:35:47;18.9;;;17.2;;
34146;SDS011;20423;49.448;9.056;2023-08-06T12:40:31;19.6;;;17.8;;
34146;SDS011;20423;49.448;9.056;2023-08-06T12:45:17;18.7;;;18;;
34146;SDS011;20423;49.448;9.056;2023-08-06T12:51:01;17.2;;;15.9;;
34146;SDS011;20423;49.448;9.056;2023-08-06T12:56:03;18.3;;;16.5;;
34146;SDS011;20423;49.448;9.056;2023-08-06T13:00:31;16;;;14.9;;
34146;SDS011;20423;49.448;9.056;2023-08-06T13:05:39;18.7;;;16.2;;
34146;SDS011;20423;49.448;9.056;2023-08-06T13:10:47;15.2;;;13.4;;
34146;SDS011;20423;49.448;9.056;2023-08-06T13:15:17;18.6;;;16.7;;
34146;SDS011;20423;49.448;9.056;2023-08-06T13:20:23;19.4;;;17.6;;
34146;SDS011;20423;49.448;9.056;2023-08-06T13:25:47;16.6;;;15.4;;
34146;SDS011;20423;49.448;9.056;2023-08-06T13:30:59;18.6;;;16.6;;
34146;SDS011;20423;49.448;9.056;2023-08-06T13:35:53;18.7;;;17.1;;
34146;SDS011;20423;49.448;9.056;2023-08-06T13:40:47;17.7;;;16.4;;
34146;SDS011;20423;49.448;9.056;2023-08-06T13:46:03;19.1;;;16.7;;
34146;SDS011;20423;49.448;9.056;2023-08-06T13:50:23;16.7;;;14.7;;
34146;SDS011;20423;49.448;9.056;2023-08-06T13:56:05;22.7;;;19.7;;
34146;SDS011;20423;49.448;9.056;2023-08-06T14:00:31;35.7;;;30.2;;
34146;SDS011;20423;49.448;9.056;2023-08-06T14:06:05;18.3;;;17.1;;
34146;SDS011;20423;49.448;9.056;2023-08-06T14:10:41;18.5;;;16.7;;
34146;SDS011;20423;49.448;9.056;2023-08-06T14:15:47;21.2;;;18.6;;
34146;SDS011;20423;49.448;9.056;2023-08-06T14:20:31;21.6;;;19.1;;
34146;SDS011;20423;49.448;9.056;2023-08-06T14:25:17;20.1;;;18.6;;
34146;SDS011;20423;49.448;9.056;2023-08-06T14:31:05;21.1;;;19.2;;
34146;SDS011;20423;49.448;9.056;2023-08-06T14:35:23;24.2;;;21.2;;
34146;SDS011;20423;49.448;9.056;2023-08-06T14:40:39;22.2;;;20.5;;
34146;SDS011;20423;49.448;9.056;2023-08-06T14:46:03;24.2;;;21.6;;
34146;SDS011;20423;49.448;9.056;2023-08-06T14:51:05;20.7;;;18.6;;
34146;SDS011;20423;49.448;9.056;2023-08-06T14:55:23;22.4;;;20.2;;
34146;SDS011;20423;49.448;9.056;2023-08-06T15:00:23;19.8;;;18.2;;
34146;SDS011;20423;49.448;9.056;2023-08-06T15:05:55;18.4;;;16.5;;
34146;SDS011;20423;49.448;9.056;2023-08-06T15:10:55;18.8;;;16.9;;
34146;SDS011;20423;49.448;9.056;2023-08-06T15:15:33;21.1;;;19.1;;
34146;SDS011;20423;49.448;9.056;2023-08-06T15:20:31;18.1;;;16.9;;
34146;SDS011;20423;49.448;9.056;2023-08-06T15:26:05;16.2;;;14.7;;
34146;SDS011;20423;49.448;9.056;2023-08-06T15:30:37;16.1;;;14.9;;
34146;SDS011;20423;49.448;9.056;2023-08-06T15:35:17;18.1;;;15.9;;
34146;SDS011;20423;49.448;9.056;2023-08-06T15:40:35;18.1;;;16.1;;
34146;SDS011;20423;49.448;9.056;2023-08-06T15:45:55;17.1;;;16.3;;
34146;SDS011;20423;49.448;9.056;2023-08-06T15:50:55;16.9;;;15.6;;
34146;SDS011;20423;49.448;9.056;2023-08-06T15:55:23;18.9;;;17.6;;
34146;SDS011;20423;49.448;9.056;2023-08-06T16:00:17;17.6;;;16.5;;
34146;SDS011;20423;49.448;9.056;2023-08-06T16:05:17;20.3;;;18.5;;
34146;SDS011;20423;49.448;9.056;2023-08-06T16:10:37;32.7;;;28.9;;
34146;SDS011;20423;49.448;9.056;2023-08-06T16:16:05;28.4;;;24.5;;
34146;SDS011;20423;49.448;9.056;2023-08-06T16:20:19;22.2;;;20.6;;
34146;SDS011;20423;49.448;9.056;2023-08-06T16:26:05;23.1;;;21;;
34146;SDS011;20423;49.448;9.056;2023-08-06T16:30:31;22.7;;;21.1;;
34146;SDS011;20423;49.448;9.056;2023-08-06T16:35:17;18.6;;;17.6;;
34146;SDS011;20423;49.448;9.056;2023-08-06T16:40:55;19.4;;;17.5;;
34146;SDS011;20423;49.448;9.056;2023-08-06T16:45:37;18.7;;;17.2;;
34146;SDS011;20423;49.448;9.056;2023-08-06T16:50:17;19.9;;;18.2;;
34146;SDS011;20423;49.448;9.056;2023-08-06T16:55:49;20.2;;;18.3;;
34146;SDS011;20423;49.448;9.056;2023-08-06T17:00:20;21;;;18.9;;
34146;SDS011;20423;49.448;9.056;2023-08-06T17:05:49;19;;;17.8;;
34146;SDS011;20423;49.448;9.056;2023-08-06T17:10:19;25.1;;;22.2;;
34146;SDS011;20423;49.448;9.056;2023-08-06T17:15:51;42.9;;;36.1;;
34146;SDS011;20423;49.448;9.056;2023-08-06T17:20:40;39.4;;;33;;
34146;SDS011;20423;49.448;9.056;2023-08-06T17:25:17;39.8;;;33.6;;
34146;SDS011;20423;49.448;9.056;2023-08-06T17:30:47;45.6;;;36.5;;
34146;SDS011;20423;49.448;9.056;2023-08-06T17:36:05;38.1;;;31.3;;
34146;SDS011;20423;49.448;9.056;2023-08-06T17:40:17;25.6;;;23.4;;
34146;SDS011;20423;49.448;9.056;2023-08-06T17:45:23;26.5;;;24.6;;
34146;SDS011;20423;49.448;9.056;2023-08-06T17:50:47;45.1;;;36.9;;
34146;SDS011;20423;49.448;9.056;2023-08-06T17:55:49;26.2;;;23.7;;
34146;SDS011;20423;49.448;9.056;2023-08-06T18:01:05;23.1;;;21.2;;
34146;SDS011;20423;49.448;9.056;2023-08-06T18:05:53;20.2;;;18.1;;
34146;SDS011;20423;49.448;9.056;2023-08-06T18:11:05;23.9;;;21.4;;
34146;SDS011;20423;49.448;9.056;2023-08-06T18:15:39;38.4;;;31.6;;
34146;SDS011;20423;49.448;9.056;2023-08-06T18:21:05;43.2;;;36;;
34146;SDS011;20423;49.448;9.056;2023-08-06T18:25:23;48.3;;;39.1;;
34146;SDS011;20423;49.448;9.056;2023-08-06T18:31:05;34.2;;;30.3;;
34146;SDS011;20423;49.448;9.056;2023-08-06T18:35:55;27.8;;;24.7;;
34146;SDS011;20423;49.448;9.056;2023-08-06T18:40:39;24.8;;;22.3;;
34146;SDS011;20423;49.448;9.056;2023-08-06T18:45:31;23;;;20.5;;
34146;SDS011;20423;49.448;9.056;2023-08-06T18:50:23;22.4;;;21;;
34146;SDS011;20423;49.448;9.056;2023-08-06T18:56:05;21.3;;;19.4;;
34146;SDS011;20423;49.448;9.056;2023-08-06T19:00:17;22.2;;;20;;
34146;SDS011;20423;49.448;9.056;2023-08-06T19:05:33;20.9;;;19.3;;
34146;SDS011;20423;49.448;9.056;2023-08-06T19:11:05;21.2;;;19.6;;
34146;SDS011;20423;49.448;9.056;2023-08-06T19:16:05;22.9;;;20.8;;
34146;SDS011;20423;49.448;9.056;2023-08-06T19:20:23;21.5;;;19.4;;
34146;SDS011;20423;49.448;9.056;2023-08-06T19:25:23;22.1;;;19.7;;
34146;SDS011;20423;49.448;9.056;2023-08-06T19:30:49;19.8;;;18.1;;
34146;SDS011;20423;49.448;9.056;2023-08-06T19:35:55;22.4;;;19.9;;
34146;SDS011;20423;49.448;9.056;2023-08-06T19:40:17;21.1;;;18.8;;
34146;SDS011;20423;49.448;9.056;2023-08-06T19:45:31;20.9;;;19;;
34146;SDS011;20423;49.448;9.056;2023-08-06T19:51:05;23.3;;;19.7;;
34146;SDS011;20423;49.448;9.056;2023-08-06T19:55:55;21.9;;;19.9;;
34146;SDS011;20423;49.448;9.056;2023-08-06T20:00:38;21.9;;;19.4;;
34146;SDS011;20423;49.448;9.056;2023-08-06T20:06:05;20.7;;;19.8;;
34146;SDS011;20423;49.448;9.056;2023-08-06T20:10:55;22.1;;;20.2;;
34146;SDS011;20423;49.448;9.056;2023-08-06T20:15:43;24.1;;;20.3;;
34146;SDS011;20423;49.448;9.056;2023-08-06T20:20:17;22;;;20.1;;
34146;SDS011;20423;49.448;9.056;2023-08-06T20:25:47;22;;;19.9;;
34146;SDS011;20423;49.448;9.056;2023-08-06T20:30:17;21.6;;;19.7;;
34146;SDS011;20423;49.448;9.056;2023-08-06T20:35:38;22.6;;;20;;
34146;SDS011;20423;49.448;9.056;2023-08-06T20:41:03;22.2;;;20.2;;
34146;SDS011;20423;49.448;9.056;2023-08-06T20:45:51;23.5;;;20.7;;
34146;SDS011;20423;49.448;9.056;2023-08-06T20:51:05;24.1;;;22.2;;
34146;SDS011;20423;49.448;9.056;2023-08-06T20:55:31;23;;;21.1;;
34146;SDS011;20423;49.448;9.056;2023-08-06T21:00:25;22.5;;;19.9;;
34146;SDS011;20423;49.448;9.056;2023-08-06T21:05:39;24.2;;;21.2;;
34146;SDS011;20423;49.448;9.056;2023-08-06T21:10:37;22.9;;;20.5;;
34146;SDS011;20423;49.448;9.056;2023-08-06T21:15:39;22.2;;;20.3;;
34146;SDS011;20423;49.448;9.056;2023-08-06T21:20:51;23.3;;;21.2;;
34146;SDS011;20423;49.448;9.056;2023-08-06T21:26:05;22.7;;;20.7;;
34146;SDS011;20423;49.448;9.056;2023-08-06T21:30:23;23.6;;;21.4;;
34146;SDS011;20423;49.448;9.056;2023-08-06T21:35:41;24.8;;;22.1;;
34146;SDS011;20423;49.448;9.056;2023-08-06T21:40:47;24.8;;;22.4;;
34146;SDS011;20423;49.448;9.056;2023-08-06T21:46:06;24.6;;;22.3;;
34146;SDS011;20423;49.448;9.056;2023-08-06T21:51:06;23.1;;;20.4;;
34146;SDS011;20423;49.448;9.056;2023-08-06T21:55:31;23.9;;;21.9;;
34146;SDS011;20423;49.448;9.056;2023-08-06T22:01:06;23.9;;;22;;
34146;SDS011;20423;49.448;9.056;2023-08-06T22:05:17;24.4;;;21.5;;
34146;SDS011;20423;49.448;9.056;2023-08-06T22:10:17;24.2;;;22.3;;
34146;SDS011;20423;49.448;9.056;2023-08-06T22:15:47;24.7;;;22.5;;
34146;SDS011;20423;49.448;9.056;2023-08-06T22:20:33;24.9;;;21.8;;
34146;SDS011;20423;49.448;9.056;2023-08-06T22:25:53;24.5;;;22.3;;
34146;SDS011;20423;49.448;9.056;2023-08-06T22:30:47;24.9;;;22.5;;
34146;SDS011;20423;49.448;9.056;2023-08-06T22:36:03;24.2;;;21.9;;
34146;SDS011;20423;49.448;9.056;2023-08-06T22:38:21;9.15;;;5.35;;
34146;SDS011;20423;49.448;9.056;2023-08-06T22:40:17;21.8;;;20.3;;
34146;SDS011;20423;49.448;9.056;2023-08-06T22:40:46;17.30;;;7.47;;
34146;SDS011;20423;49.448;9.056;2023-08-06T22:46:01;21.6;;;19.9;;
34146;SDS011;20423;49.448;9.056;2023-08-06T22:48:03;9.80;;;5.10;;
34146;SDS011;20423;49.448;9.056;2023-08-06T22:50:29;10.25;;;7.05;;
34146;SDS011;20423;49.448;9.056;2023-08-06T22:50:37;23.5;;;21.3;;
34146;SDS011;20423;49.448;9.056;2023-08-06T22:52:56;10.40;;;5.20;;
34146;SDS011;20423;49.448;9.056;2023-08-06T22:55:22;9.73;;;5.18;;
34146;SDS011;20423;49.448;9.056;2023-08-06T22:55:47;20.7;;;18.3;;
34146;SDS011;20423;49.448;9.056;2023-08-06T22:57:47;13.10;;;5.00;;
34146;SDS011;20423;49.448;9.056;2023-08-06T23:00:13;10.15;;;5.25;;
34146;SDS011;20423;49.448;9.056;2023-08-06T23:00:53;21.8;;;19.6;;
34146;SDS011;20423;49.448;9.056;2023-08-06T23:02:39;15.05;;;5.03;;
34146;SDS011;20423;49.448;9.056;2023-08-06T23:05:05;10.70;;;5.10;;
34146;SDS011;20423;49.448;9.056;2023-08-06T23:05:47;22.6;;;20.6;;
34146;SDS011;20423;49.448;9.056;2023-08-06T23:07:31;11.40;;;5.65;;
34146;SDS011;20423;49.448;9.056;2023-08-06T23:10:06;12.23;;;4.97;;
34146;SDS011;20423;49.448;9.056;2023-08-06T23:10:37;22.4;;;21.2;;
34146;SDS011;20423;49.448;9.056;2023-08-06T23:12:32;14.13;;;5.47;;
34146;SDS011;20423;49.448;9.056;2023-08-06T23:14:58;10.73;;;5.57;;
34146;SDS011;20423;49.448;9.056;2023-08-06T23:15:17;22.9;;;20.3;;
34146;SDS011;20423;49.448;9.056;2023-08-06T23:17:25;7.97;;;5.07;;
34146;SDS011;20423;49.448;9.056;2023-08-06T23:19:51;8.97;;;5.23;;
34146;SDS011;20423;49.448;9.056;2023-08-06T23:21:03;23.6;;;21.2;;
34146;SDS011;20423;49.448;9.056;2023-08-06T23:22:16;15.40;;;5.55;;
34146;SDS011;20423;49.448;9.056;2023-08-06T23:25:33;23.1;;;20.6;;
34146;SDS011;20423;49.448;9.056;2023-08-06T23:30:31;21.7;;;19.8;;
34146;SDS011;20423;49.448;9.056;2023-08-06T23:36:03;23.5;;;21.3;;
34146;SDS011;20423;49.448;9.056;2023-08-06T23:41:03;22.1;;;20;;
34146;SDS011;20423;49.448;9.056;2023-08-06T23:45:23;22.4;;;20;;
34146;SDS011;20423;49.448;9.056;2023-08-06T23:50:17;24.1;;;21.4;;
34146;SDS011;20423;49.448;9.056;2023-08-06T23:55:53;22.4;;;20.2;;
